Time;durP1;ratioP1;P1;durP2;ratioP2;P2;SDS_P1;SDS_P2;PMS_P1;PMS_P2;Temp;Humidity;BMP_temperature;BMP_pressure;BME280_temperature;BME280_humidity;BME280_pressure;Samples;Min_cycle;Max_cycle;Signal;HPM_P1;HPM_P2
2022/01/20 00:01:59;;;;;;;;;7.25;2.00;;;;;-143.72;100.00;60182.97;5056120;28;45458;-75
2022/01/20 00:04:35;;;;;;;;;11.50;4.00;;;;;-143.72;100.00;60182.97;5049796;28;45510;-74
2022/01/20 00:25:58;;;;;;;;;11.00;2.25;;;;;-143.72;100.00;60182.97;5055062;28;45320;-75
2022/01/20 00:31:28;;;;;;;;;7.25;1.00;;;;;-143.72;100.00;60182.97;5053968;28;45698;-75
2022/01/20 00:34:19;;;;;;;;;12.00;2.00;;;;;-143.72;100.00;60182.97;5033753;28;50148;-75
2022/01/20 00:39:26;;;;;;;;;5.00;3.00;;;;;-143.72;100.00;60182.97;5049557;28;45620;-75
2022/01/20 00:41:52;;;;;;;;;13.00;2.50;;;;;-143.72;100.00;60182.97;5054457;28;45435;-75
2022/01/20 00:44:18;;;;;;;;;6.00;1.00;;;;;-143.72;100.00;60182.97;5053791;28;45459;-75
2022/01/20 00:46:44;;;;;;;;;1.50;1.00;;;;;-143.72;100.00;60182.97;5036152;28;47351;-75
2022/01/20 00:49:10;;;;;;;;;13.50;1.25;;;;;-143.72;100.00;60182.97;5053144;28;45372;-74
2022/01/20 00:51:35;;;;;;;;;2.25;0.75;;;;;-143.72;100.00;60182.97;5053456;28;46181;-75
2022/01/20 00:54:00;;;;;;;;;2.00;1.00;;;;;-143.72;100.00;60182.97;5048713;28;45405;-75
2022/01/20 00:56:26;;;;;;;;;4.00;1.75;;;;;-143.72;100.00;60182.97;5054884;28;45645;-75
2022/01/20 00:58:51;;;;;;;;;5.25;1.50;;;;;-143.72;100.00;60182.97;5035915;28;45406;-75
2022/01/20 01:01:16;;;;;;;;;2.50;1.50;;;;;-143.72;100.00;60182.97;5049546;28;45375;-74
2022/01/20 01:03:42;;;;;;;;;4.00;1.00;;;;;-143.72;100.00;60182.97;5053870;28;45320;-74
2022/01/20 01:08:51;;;;;;;;;5.75;2.00;;;;;-143.72;100.00;60182.97;5039047;28;45352;-74
2022/01/20 01:11:18;;;;;;;;;2.50;1.00;;;;;-143.72;100.00;60182.97;5055125;28;45549;-74
2022/01/20 01:13:43;;;;;;;;;3.25;1.50;;;;;-143.72;100.00;60182.97;5049748;28;45380;-74
2022/01/20 01:16:11;;;;;;;;;2.00;1.00;;;;;-143.72;100.00;60182.97;5047466;28;45493;-75
2022/01/20 01:21:41;;;;;;;;;7.00;2.50;;;;;-143.72;100.00;60182.97;5054140;28;45285;-75
2022/01/20 01:24:07;;;;;;;;;7.75;3.00;;;;;-143.72;100.00;60182.97;5045463;28;45690;-74
2022/01/20 01:26:32;;;;;;;;;2.25;1.00;;;;;-143.72;100.00;60182.97;5053835;28;45966;-74
2022/01/20 01:28:59;;;;;;;;;7.25;2.75;;;;;-143.72;100.00;60182.97;5053236;28;45501;-75
2022/01/20 01:34:07;;;;;;;;;5.50;3.00;;;;;-143.72;100.00;60182.97;5051565;28;45373;-75
2022/01/20 01:36:48;;;;;;;;;1.75;1.00;;;;;-143.72;100.00;60182.97;5049344;28;45368;-75
2022/01/20 01:39:15;;;;;;;;;11.00;2.75;;;;;-143.72;100.00;60182.97;5052771;28;45492;-74
2022/01/20 01:41:40;;;;;;;;;2.50;2.50;;;;;-143.72;100.00;60182.97;5053501;28;45463;-75
2022/01/20 01:44:09;;;;;;;;;2.75;1.50;;;;;-143.72;100.00;60182.97;5054468;28;45416;-75
2022/01/20 01:46:36;;;;;;;;;2.00;2.00;;;;;-143.72;100.00;60182.97;5053756;28;46466;-74
2022/01/20 01:49:02;;;;;;;;;5.00;1.75;;;;;-143.72;100.00;60182.97;5051390;28;45447;-74
2022/01/20 01:51:27;;;;;;;;;4.75;2.00;;;;;-143.72;100.00;60182.97;5053598;28;45254;-74
2022/01/20 01:53:53;;;;;;;;;2.25;2.25;;;;;-143.72;100.00;60182.97;5052665;28;45553;-74
2022/01/20 01:56:20;;;;;;;;;6.50;2.00;;;;;-143.72;100.00;60182.97;5053349;28;45233;-75
2022/01/20 01:58:45;;;;;;;;;3.00;1.00;;;;;-143.72;100.00;60182.97;5053176;28;45414;-74
2022/01/20 02:01:10;;;;;;;;;3.25;1.25;;;;;-143.72;100.00;60182.97;5045526;28;48628;-75
2022/01/20 02:03:44;;;;;;;;;3.25;1.50;;;;;-143.72;100.00;60182.97;5033097;28;45777;-74
2022/01/20 02:06:33;;;;;;;;;2.50;2.50;;;;;-143.72;100.00;60182.97;5053540;28;46226;-74
2022/01/20 02:09:18;;;;;;;;;7.75;2.00;;;;;-143.72;100.00;60182.97;5039622;28;45380;-74
2022/01/20 02:19:57;;;;;;;;;1.75;1.75;;;;;-143.72;100.00;60182.97;5052572;28;45367;-74
2022/01/20 02:22:23;;;;;;;;;4.00;3.00;;;;;-143.72;100.00;60182.97;5053044;28;45459;-74
2022/01/20 02:24:48;;;;;;;;;7.25;2.75;;;;;-143.72;100.00;60182.97;5052088;28;45464;-74
2022/01/20 02:27:14;;;;;;;;;6.25;2.00;;;;;-143.72;100.00;60182.97;5052869;28;46002;-74
2022/01/20 02:29:40;;;;;;;;;7.00;2.00;;;;;-143.72;100.00;60182.97;5052627;28;45510;-75
2022/01/20 02:32:07;;;;;;;;;10.00;3.00;;;;;-143.72;100.00;60182.97;5045514;28;45520;-75
2022/01/20 02:34:32;;;;;;;;;3.00;3.00;;;;;-143.72;100.00;60182.97;5052475;28;45577;-75
2022/01/20 02:37:01;;;;;;;;;3.75;2.50;;;;;-143.72;100.00;60182.97;5050880;28;47313;-75
2022/01/20 02:44:54;;;;;;;;;6.75;3.00;;;;;-143.72;100.00;60182.97;5039077;28;45301;-75
2022/01/20 02:47:22;;;;;;;;;4.25;2.50;;;;;-143.72;100.00;60182.97;5033659;28;45710;-75
2022/01/20 02:49:49;;;;;;;;;4.75;2.25;;;;;-143.72;100.00;60182.97;5049998;28;45491;-75
2022/01/20 02:52:14;;;;;;;;;3.00;3.00;;;;;-143.72;100.00;60182.97;5050615;28;45766;-75
2022/01/20 02:54:40;;;;;;;;;12.00;3.25;;;;;-143.72;100.00;60182.97;5031770;28;45394;-75
2022/01/20 02:57:06;;;;;;;;;3.25;3.00;;;;;-143.72;100.00;60182.97;5033669;28;47000;-75
2022/01/20 02:59:34;;;;;;;;;6.25;3.25;;;;;-143.72;100.00;60182.97;5027162;28;45530;-74
2022/01/20 03:01:59;;;;;;;;;8.50;3.50;;;;;-143.72;100.00;60182.97;5053251;28;45767;-75
2022/01/20 03:04:26;;;;;;;;;7.00;6.00;;;;;-143.72;100.00;60182.97;5052509;28;45824;-74
2022/01/20 03:06:52;;;;;;;;;5.00;3.50;;;;;-143.72;100.00;60182.97;5051920;28;45408;-74
2022/01/20 03:09:17;;;;;;;;;6.50;4.50;;;;;-143.72;100.00;60182.97;5033821;28;45482;-74
2022/01/20 03:11:43;;;;;;;;;7.50;5.50;;;;;-143.72;100.00;60182.97;5054508;28;45943;-74
2022/01/20 03:14:08;;;;;;;;;7.00;4.00;;;;;-143.72;100.00;60182.97;5055813;28;45490;-75
2022/01/20 03:16:34;;;;;;;;;11.00;4.00;;;;;-143.72;100.00;60182.97;5046237;28;45369;-75
2022/01/20 03:18:59;;;;;;;;;9.00;3.75;;;;;-143.72;100.00;60182.97;5047389;28;45561;-75
2022/01/20 03:21:24;;;;;;;;;4.50;3.50;;;;;-143.72;100.00;60182.97;5055051;28;45355;-75
2022/01/20 03:23:50;;;;;;;;;8.00;3.00;;;;;-143.72;100.00;60182.97;5055791;28;45412;-75
2022/01/20 03:26:16;;;;;;;;;8.00;5.50;;;;;-143.72;100.00;60182.97;5051529;28;46460;-75
2022/01/20 03:28:41;;;;;;;;;6.00;3.00;;;;;-143.72;100.00;60182.97;5056487;28;45481;-75
2022/01/20 03:31:07;;;;;;;;;6.00;3.00;;;;;-143.72;100.00;60182.97;5053574;28;45640;-75
2022/01/20 03:33:32;;;;;;;;;6.75;3.50;;;;;-143.72;100.00;60182.97;5055842;28;45349;-75
2022/01/20 03:35:57;;;;;;;;;4.50;3.75;;;;;-143.72;100.00;60182.97;5047819;28;46050;-75
2022/01/20 03:38:23;;;;;;;;;6.75;3.00;;;;;-143.72;100.00;60182.97;5055183;28;45368;-74
2022/01/20 03:40:50;;;;;;;;;5.50;3.00;;;;;-143.72;100.00;60182.97;5054735;28;45611;-74
2022/01/20 03:43:15;;;;;;;;;3.50;2.25;;;;;-143.72;100.00;60182.97;5054558;28;45596;-75
2022/01/20 03:45:42;;;;;;;;;3.25;3.00;;;;;-143.72;100.00;60182.97;5034209;28;45992;-75
2022/01/20 03:48:10;;;;;;;;;10.25;5.00;;;;;-143.72;100.00;60182.97;5053723;28;45467;-74
2022/01/20 03:53:22;;;;;;;;;8.50;5.00;;;;;-143.72;100.00;60182.97;5053389;28;45455;-75
2022/01/20 03:55:48;;;;;;;;;7.25;5.75;;;;;-143.72;100.00;60182.97;5052652;28;48168;-75
2022/01/20 03:58:14;;;;;;;;;10.50;4.00;;;;;-143.72;100.00;60182.97;5055324;28;45412;-75
2022/01/20 04:00:39;;;;;;;;;8.50;4.00;;;;;-143.72;100.00;60182.97;5032289;28;45400;-74
2022/01/20 04:03:05;;;;;;;;;8.25;4.75;;;;;-143.72;100.00;60182.97;5055516;28;45570;-75
2022/01/20 04:05:30;;;;;;;;;5.50;5.50;;;;;-143.72;100.00;60182.97;5027411;28;46088;-75
2022/01/20 04:07:55;;;;;;;;;7.75;3.75;;;;;-143.72;100.00;60182.97;5055795;28;45586;-75
2022/01/20 04:10:21;;;;;;;;;10.25;6.00;;;;;-143.72;100.00;60182.97;5052974;28;45779;-75
2022/01/20 04:12:46;;;;;;;;;8.50;5.50;;;;;-143.72;100.00;60182.97;5054822;28;45317;-75
2022/01/20 04:15:12;;;;;;;;;9.00;5.50;;;;;-143.72;100.00;60182.97;5029537;28;47482;-74
2022/01/20 04:17:41;;;;;;;;;8.00;4.75;;;;;-143.72;100.00;60182.97;5055167;28;45503;-75
2022/01/20 04:20:07;;;;;;;;;11.00;7.00;;;;;-143.72;100.00;60182.97;5045770;28;45385;-75
2022/01/20 04:22:33;;;;;;;;;9.25;4.00;;;;;-143.72;100.00;60182.97;5052836;28;51551;-75
2022/01/20 04:24:59;;;;;;;;;6.25;5.00;;;;;-143.72;100.00;60182.97;5054130;28;47845;-75
2022/01/20 04:27:24;;;;;;;;;7.75;6.00;;;;;-143.72;100.00;60182.97;5054181;28;45291;-74
2022/01/20 04:29:50;;;;;;;;;5.50;4.00;;;;;-143.72;100.00;60182.97;5054059;28;45646;-74
2022/01/20 04:32:15;;;;;;;;;5.00;3.50;;;;;-143.72;100.00;60182.97;5055106;28;45435;-76
2022/01/20 04:34:41;;;;;;;;;13.25;6.00;;;;;-143.72;100.00;60182.97;5049273;28;45700;-74
2022/01/20 04:37:07;;;;;;;;;7.75;4.50;;;;;-143.72;100.00;60182.97;5027433;28;45437;-74
2022/01/20 04:39:36;;;;;;;;;12.50;6.00;;;;;-143.72;100.00;60182.97;5044080;28;45600;-74
2022/01/20 04:42:02;;;;;;;;;7.25;6.00;;;;;-143.72;100.00;60182.97;5054514;28;45297;-74
2022/01/20 04:47:21;;;;;;;;;7.75;4.00;;;;;-143.72;100.00;60182.97;5045289;28;45491;-75
2022/01/20 04:57:58;;;;;;;;;7.25;6.00;;;;;-143.72;100.00;60182.97;5053188;28;45325;-75
2022/01/20 05:00:24;;;;;;;;;11.25;6.00;;;;;-143.72;100.00;60182.97;5045255;28;45349;-75
2022/01/20 05:02:49;;;;;;;;;9.25;7.25;;;;;-143.72;100.00;60182.97;5053869;28;45391;-74
2022/01/20 05:05:14;;;;;;;;;11.50;6.00;;;;;-143.72;100.00;60182.97;5054680;28;45344;-74
2022/01/20 05:07:40;;;;;;;;;3.75;2.00;;;;;-143.72;100.00;60182.97;5054377;28;45491;-74
2022/01/20 05:10:10;;;;;;;;;6.00;3.00;;;;;-143.72;100.00;60182.97;5053727;28;45479;-74
2022/01/20 05:15:25;;;;;;;;;10.25;6.25;;;;;-143.72;100.00;60182.97;4968843;28;45827;-74
2022/01/20 05:17:52;;;;;;;;;11.50;6.25;;;;;-143.72;100.00;60182.97;4953029;28;45564;-75
2022/01/20 05:20:17;;;;;;;;;7.00;6.00;;;;;-143.72;100.00;60182.97;4971232;28;45541;-75
2022/01/20 05:22:43;;;;;;;;;4.50;4.50;;;;;-143.72;100.00;60182.97;4971166;28;45394;-74
2022/01/20 05:25:09;;;;;;;;;7.00;5.50;;;;;-143.72;100.00;60182.97;4970476;28;46172;-74
2022/01/20 05:27:34;;;;;;;;;8.50;6.00;;;;;-143.72;100.00;60182.97;4952017;28;45552;-75
2022/01/20 05:30:00;;;;;;;;;13.25;6.50;;;;;-143.72;100.00;60182.97;4968660;28;45948;-75
2022/01/20 05:32:25;;;;;;;;;6.75;4.00;;;;;-143.72;100.00;60182.97;4960631;28;45435;-75
2022/01/20 05:34:51;;;;;;;;;5.50;3.75;;;;;-143.72;100.00;60182.97;4956534;28;46066;-75
2022/01/20 05:37:17;;;;;;;;;12.50;7.00;;;;;-143.72;100.00;60182.97;4952451;28;45789;-74
2022/01/20 05:39:43;;;;;;;;;13.00;6.25;;;;;-143.72;100.00;60182.97;4970183;28;50389;-74
2022/01/20 05:42:08;;;;;;;;;5.25;5.00;;;;;-143.72;100.00;60182.97;4968673;28;45490;-75
2022/01/20 05:44:34;;;;;;;;;8.75;6.00;;;;;-143.72;100.00;60182.97;4958268;28;45514;-75
2022/01/20 05:47:05;;;;;;;;;7.25;5.50;;;;;-143.72;100.00;60182.97;4972515;28;45477;-75
2022/01/20 05:49:31;;;;;;;;;4.00;3.75;;;;;-143.72;100.00;60182.97;4970344;28;45864;-75
2022/01/20 05:51:56;;;;;;;;;10.50;5.50;;;;;-143.72;100.00;60182.97;4993320;28;45703;-75
2022/01/20 05:54:22;;;;;;;;;13.50;4.50;;;;;-143.72;100.00;60182.97;5044402;28;46045;-75
2022/01/20 05:56:48;;;;;;;;;3.75;3.75;;;;;-143.72;100.00;60182.97;5051067;28;45441;-75
2022/01/20 05:59:13;;;;;;;;;5.00;3.00;;;;;-143.72;100.00;60182.97;5036286;28;45552;-75
2022/01/20 06:01:39;;;;;;;;;6.50;3.50;;;;;-143.72;100.00;60182.97;5053413;28;45328;-75
2022/01/20 06:04:08;;;;;;;;;7.00;3.50;;;;;-143.72;100.00;60182.97;5049874;28;46135;-74
2022/01/20 06:06:35;;;;;;;;;16.25;4.00;;;;;-143.72;100.00;60182.97;5042172;28;45423;-75
2022/01/20 06:09:03;;;;;;;;;11.25;6.00;;;;;-143.72;100.00;60182.97;5025264;28;45685;-76
2022/01/20 06:11:29;;;;;;;;;2.75;2.75;;;;;-143.72;100.00;60182.97;5053635;28;45437;-74
2022/01/20 06:13:54;;;;;;;;;8.50;4.00;;;;;-143.72;100.00;60182.97;5051640;28;45351;-75
2022/01/20 06:16:19;;;;;;;;;13.00;3.25;;;;;-143.72;100.00;60182.97;5052423;28;45317;-75
2022/01/20 06:18:45;;;;;;;;;4.00;2.00;;;;;-143.72;100.00;60182.97;5052875;28;45676;-75
2022/01/20 06:21:10;;;;;;;;;10.75;4.50;;;;;-143.72;100.00;60182.97;5048856;28;48671;-75
2022/01/20 06:23:36;;;;;;;;;12.75;8.25;;;;;-143.72;100.00;60182.97;5052465;28;45502;-75
2022/01/20 06:26:05;;;;;;;;;11.50;3.25;;;;;-143.72;100.00;60182.97;5043308;28;45339;-74
2022/01/20 06:28:32;;;;;;;;;5.25;5.00;;;;;-143.72;100.00;60182.97;5053058;28;45353;-74
2022/01/20 06:30:57;;;;;;;;;7.75;4.50;;;;;-143.72;100.00;60182.97;5052951;28;45538;-74
2022/01/20 06:33:23;;;;;;;;;8.00;4.00;;;;;-143.72;100.00;60182.97;5052149;28;45987;-74
2022/01/20 06:35:48;;;;;;;;;13.00;3.75;;;;;-143.72;100.00;60182.97;5052485;28;45405;-75
2022/01/20 06:38:15;;;;;;;;;7.00;5.00;;;;;-143.72;100.00;60182.97;5054121;28;45432;-74
2022/01/20 06:40:41;;;;;;;;;6.75;3.75;;;;;-143.72;100.00;60182.97;5040149;28;45432;-73
2022/01/20 06:43:06;;;;;;;;;8.25;7.00;;;;;-143.72;100.00;60182.97;5050860;28;45436;-74
2022/01/20 06:45:32;;;;;;;;;8.75;4.00;;;;;-143.72;100.00;60182.97;5056729;28;45642;-75
2022/01/20 06:47:58;;;;;;;;;8.25;4.00;;;;;-143.72;100.00;60182.97;5055862;28;45446;-75
2022/01/20 06:50:24;;;;;;;;;6.00;6.00;;;;;-143.72;100.00;60182.97;5038731;28;45487;-75
2022/01/20 06:52:50;;;;;;;;;11.50;5.00;;;;;-143.72;100.00;60182.97;5057753;28;46056;-75
2022/01/20 06:55:15;;;;;;;;;5.50;3.25;;;;;-143.72;100.00;60182.97;5053752;28;45463;-75
2022/01/20 06:57:41;;;;;;;;;5.00;4.50;;;;;-143.72;100.00;60182.97;5056193;28;45296;-74
2022/01/20 07:00:13;;;;;;;;;12.00;3.75;;;;;-143.72;100.00;60182.97;5055855;28;45474;-74
2022/01/20 07:02:39;;;;;;;;;6.75;2.25;;;;;-143.72;100.00;60182.97;5050975;28;46476;-75
2022/01/20 07:05:04;;;;;;;;;9.75;3.75;;;;;-143.72;100.00;60182.97;5057363;28;45312;-75
2022/01/20 07:07:31;;;;;;;;;3.50;2.00;;;;;-143.72;100.00;60182.97;5035255;28;45296;-75
2022/01/20 07:09:56;;;;;;;;;3.25;2.00;;;;;-143.72;100.00;60182.97;5055345;28;45480;-75
2022/01/20 07:12:22;;;;;;;;;7.25;2.00;;;;;-143.72;100.00;60182.97;5036445;28;48736;-75
2022/01/20 07:14:47;;;;;;;;;2.00;1.00;;;;;-143.72;100.00;60182.97;5055350;28;45541;-75
2022/01/20 07:17:13;;;;;;;;;2.50;0.75;;;;;-143.72;100.00;60182.97;5057676;28;45680;-75
2022/01/20 07:19:38;;;;;;;;;3.00;2.00;;;;;-143.72;100.00;60182.97;5056087;28;45420;-75
2022/01/20 07:22:04;;;;;;;;;3.25;1.75;;;;;-143.72;100.00;60182.97;5055372;28;45963;-74
2022/01/20 07:24:30;;;;;;;;;6.50;0.25;;;;;-143.72;100.00;60182.97;5055986;28;45395;-74
2022/01/20 07:26:57;;;;;;;;;1.75;0.75;;;;;-143.72;100.00;60182.97;5056199;28;45459;-74
2022/01/20 07:29:22;;;;;;;;;3.00;2.00;;;;;-143.72;100.00;60182.97;5056549;28;45528;-74
2022/01/20 07:31:48;;;;;;;;;8.00;1.75;;;;;-143.72;100.00;60182.97;5055927;28;48384;-74
2022/01/20 07:34:13;;;;;;;;;2.75;1.75;;;;;-143.72;100.00;60182.97;5055321;28;45462;-74
2022/01/20 07:36:38;;;;;;;;;6.00;1.00;;;;;-143.72;100.00;60182.97;5055453;28;45499;-74
2022/01/20 07:39:04;;;;;;;;;1.50;1.00;;;;;-143.72;100.00;60182.97;5055823;28;45450;-74
2022/01/20 07:41:31;;;;;;;;;1.50;1.50;;;;;-143.72;100.00;60182.97;5055516;28;46099;-74
2022/01/20 07:43:57;;;;;;;;;3.00;1.00;;;;;-143.72;100.00;60182.97;5056137;28;45798;-75
2022/01/20 07:46:22;;;;;;;;;1.00;1.00;;;;;-143.72;100.00;60182.97;5054765;28;45465;-74
2022/01/20 07:48:48;;;;;;;;;4.00;1.00;;;;;-143.72;100.00;60182.97;5055373;28;45376;-74
2022/01/20 07:51:14;;;;;;;;;1.00;1.00;;;;;-143.72;100.00;60182.97;5055210;28;46062;-74
2022/01/20 07:53:40;;;;;;;;;8.25;3.00;;;;;-143.72;100.00;60182.97;5036196;28;45563;-74
2022/01/20 07:56:05;;;;;;;;;1.00;1.00;;;;;-143.72;100.00;60182.97;5055450;28;45368;-74
2022/01/20 07:58:35;;;;;;;;;4.00;1.75;;;;;-143.72;100.00;60182.97;5034405;28;45661;-73
2022/01/20 08:01:00;;;;;;;;;8.00;1.00;;;;;-143.72;100.00;60182.97;5055089;28;45626;-74
2022/01/20 08:03:26;;;;;;;;;2.75;0.75;;;;;-143.72;100.00;60182.97;5055242;28;47597;-73
2022/01/20 08:05:51;;;;;;;;;2.00;1.00;;;;;-143.72;100.00;60182.97;5055624;28;45590;-73
2022/01/20 08:08:17;;;;;;;;;0.75;0.50;;;;;-143.72;100.00;60182.97;5055526;28;45597;-73
2022/01/20 08:10:42;;;;;;;;;2.50;1.00;;;;;-143.72;100.00;60182.97;5055866;28;45733;-73
2022/01/20 08:13:07;;;;;;;;;0.25;0.25;;;;;-143.72;100.00;60182.97;5055642;28;45383;-73
2022/01/20 08:15:33;;;;;;;;;2.00;0.25;;;;;-143.72;100.00;60182.97;5054781;28;45908;-73
2022/01/20 08:17:58;;;;;;;;;4.50;2.00;;;;;-143.72;100.00;60182.97;5036672;28;45587;-73
2022/01/20 08:20:24;;;;;;;;;0.50;0.50;;;;;-143.72;100.00;60182.97;5054979;28;46350;-74
2022/01/20 08:22:49;;;;;;;;;0.25;0.25;;;;;-143.72;100.00;60182.97;5055996;28;45558;-73
2022/01/20 08:25:18;;;;;;;;;1.00;1.00;;;;;-143.72;100.00;60182.97;5055500;28;45471;-73
2022/01/20 08:27:45;;;;;;;;;0.25;0.00;;;;;-143.72;100.00;60182.97;5055075;28;45513;-73
2022/01/20 08:30:15;;;;;;;;;2.00;1.00;;;;;-143.72;100.00;60182.97;5054554;28;45345;-73
2022/01/20 08:32:42;;;;;;;;;7.75;2.00;;;;;-143.72;100.00;60182.97;5042210;28;45428;-73
2022/01/20 08:35:09;;;;;;;;;3.25;2.00;;;;;-143.72;100.00;60182.97;5038503;28;45350;-75
2022/01/20 08:37:37;;;;;;;;;8.00;2.00;;;;;-143.72;100.00;60182.97;5036728;28;45301;-75
2022/01/20 08:40:05;;;;;;;;;7.25;1.50;;;;;-143.72;100.00;60182.97;5053874;28;47176;-74
2022/01/20 08:42:31;;;;;;;;;2.00;1.00;;;;;-143.72;100.00;60182.97;5054823;28;45471;-76
2022/01/20 08:44:57;;;;;;;;;6.50;2.00;;;;;-143.72;100.00;60182.97;5033553;28;45517;-74
2022/01/20 08:47:22;;;;;;;;;3.50;1.25;;;;;-143.72;100.00;60182.97;5054831;28;45365;-75
2022/01/20 08:49:50;;;;;;;;;1.75;1.75;;;;;-143.72;100.00;60182.97;5054389;28;47103;-76
2022/01/20 08:52:16;;;;;;;;;3.00;1.00;;;;;-143.72;100.00;60182.97;5054347;28;45501;-76
2022/01/20 08:54:47;;;;;;;;;7.75;1.00;;;;;-143.72;100.00;60182.97;5054251;28;45356;-76
2022/01/20 08:57:13;;;;;;;;;3.25;2.25;;;;;-143.72;100.00;60182.97;5055238;28;45436;-75
2022/01/20 08:59:41;;;;;;;;;7.00;2.00;;;;;-143.72;100.00;60182.97;5054297;28;45642;-76
2022/01/20 09:02:07;;;;;;;;;5.00;2.25;;;;;-143.72;100.00;60182.97;5055567;28;45562;-76
2022/01/20 09:04:33;;;;;;;;;3.50;2.00;;;;;-143.72;100.00;60182.97;5053886;28;45568;-77
2022/01/20 09:06:59;;;;;;;;;0.75;0.75;;;;;-143.72;100.00;60182.97;5053728;28;45542;-77
2022/01/20 09:09:24;;;;;;;;;7.50;2.25;;;;;-143.72;100.00;60182.97;5035764;28;45535;-77
2022/01/20 09:17:18;;;;;;;;;8.25;2.00;;;;;-143.72;100.00;60182.97;5051348;28;45375;-76
2022/01/20 09:19:43;;;;;;;;;7.75;1.75;;;;;-143.72;100.00;60182.97;5054963;28;46228;-76
2022/01/20 09:22:09;;;;;;;;;3.50;1.00;;;;;-143.72;100.00;60182.97;5053885;28;45456;-76
2022/01/20 09:24:34;;;;;;;;;9.00;3.00;;;;;-143.72;100.00;60182.97;5033261;28;45398;-76
2022/01/20 09:27:00;;;;;;;;;8.50;2.25;;;;;-143.72;100.00;60182.97;5032184;28;45656;-76
2022/01/20 09:29:25;;;;;;;;;6.25;2.00;;;;;-143.72;100.00;60182.97;5053640;28;46334;-75
2022/01/20 09:31:52;;;;;;;;;4.00;1.00;;;;;-143.72;100.00;60182.97;5036843;28;45412;-75
2022/01/20 09:34:18;;;;;;;;;3.75;2.00;;;;;-143.72;100.00;60182.97;5033048;28;45368;-75
2022/01/20 09:36:45;;;;;;;;;8.00;3.00;;;;;-143.72;100.00;60182.97;5053469;28;45391;-75
2022/01/20 09:39:11;;;;;;;;;4.00;1.75;;;;;-143.72;100.00;60182.97;5053591;28;45460;-75
2022/01/20 09:41:37;;;;;;;;;5.50;1.00;;;;;-143.72;100.00;60182.97;5053343;28;45352;-75
2022/01/20 09:44:05;;;;;;;;;7.50;2.00;;;;;-143.72;100.00;60182.97;5055129;28;45421;-75
2022/01/20 09:46:31;;;;;;;;;6.25;2.50;;;;;-143.72;100.00;60182.97;5054355;28;45489;-76
2022/01/20 09:48:56;;;;;;;;;2.75;2.75;;;;;-143.72;100.00;60182.97;5053399;28;46065;-77
2022/01/20 09:51:22;;;;;;;;;2.50;1.50;;;;;-143.72;100.00;60182.97;5035115;28;45498;-77
2022/01/20 09:53:48;;;;;;;;;1.50;1.00;;;;;-143.72;100.00;60182.97;5054290;28;45320;-76
2022/01/20 09:56:14;;;;;;;;;7.25;3.00;;;;;-143.72;100.00;60182.97;5054679;28;45231;-76
2022/01/20 09:58:39;;;;;;;;;10.00;2.00;;;;;-143.72;100.00;60182.97;5053868;28;45307;-77
2022/01/20 10:01:05;;;;;;;;;4.00;2.50;;;;;-143.72;100.00;60182.97;5053380;28;45238;-77
2022/01/20 10:03:31;;;;;;;;;7.00;2.75;;;;;-143.72;100.00;60182.97;5053733;28;45301;-76
2022/01/20 10:05:58;;;;;;;;;4.25;2.25;;;;;-143.72;100.00;60182.97;5053176;28;45615;-76
2022/01/20 10:08:26;;;;;;;;;3.50;1.25;;;;;-143.72;100.00;60182.97;5053427;28;45528;-76
2022/01/20 10:11:09;;;;;;;;;5.00;2.00;;;;;-143.72;100.00;60182.97;5054000;28;45620;-77
2022/01/20 10:13:37;;;;;;;;;6.00;4.25;;;;;-143.72;100.00;60182.97;5034489;28;45455;-77
2022/01/20 10:16:12;;;;;;;;;5.25;2.00;;;;;-143.72;100.00;60182.97;5052470;28;45492;-77
2022/01/20 10:18:57;;;;;;;;;5.00;1.50;;;;;-143.72;100.00;60182.97;5052786;28;45563;-76
2022/01/20 10:21:36;;;;;;;;;5.00;2.00;;;;;-143.72;100.00;60182.97;5052681;28;45452;-76
2022/01/20 10:24:12;;;;;;;;;3.25;2.00;;;;;-143.72;100.00;60182.97;5052777;28;45752;-77
2022/01/20 10:26:40;;;;;;;;;4.00;1.75;;;;;-143.72;100.00;60182.97;5033840;28;45754;-76
2022/01/20 10:29:14;;;;;;;;;4.50;2.25;;;;;-143.72;100.00;60182.97;5052589;28;46052;-77
2022/01/20 10:31:51;;;;;;;;;2.00;2.00;;;;;-143.72;100.00;60182.97;5053399;28;45456;-77
2022/01/20 10:34:19;;;;;;;;;8.00;1.75;;;;;-143.72;100.00;60182.97;5052685;28;45425;-77
2022/01/20 10:36:54;;;;;;;;;3.00;1.25;;;;;-143.72;100.00;60182.97;5029838;28;45311;-77
2022/01/20 10:39:28;;;;;;;;;5.25;2.00;;;;;-143.72;100.00;60182.97;5022959;28;48371;-77
2022/01/20 10:41:59;;;;;;;;;2.75;2.50;;;;;-143.72;100.00;60182.97;5052559;28;45415;-78
2022/01/20 10:44:25;;;;;;;;;4.00;1.00;;;;;-143.72;100.00;60182.97;5052913;28;45306;-77
2022/01/20 10:46:56;;;;;;;;;10.50;2.25;;;;;-143.72;100.00;60182.97;5053418;28;45578;-76
2022/01/20 10:49:29;;;;;;;;;3.25;2.00;;;;;-143.72;100.00;60182.97;5052311;28;46211;-76
2022/01/20 10:52:04;;;;;;;;;3.75;3.50;;;;;-143.72;100.00;60182.97;5052891;28;45351;-76
2022/01/20 10:54:43;;;;;;;;;4.75;1.00;;;;;-143.72;100.00;60182.97;5051699;28;45598;-76
2022/01/20 10:57:10;;;;;;;;;3.50;2.25;;;;;-143.72;100.00;60182.97;5052656;28;45405;-76
2022/01/20 10:59:48;;;;;;;;;5.50;1.00;;;;;-143.72;100.00;60182.97;5052240;28;46359;-77
2022/01/20 11:02:18;;;;;;;;;5.50;3.00;;;;;-143.72;100.00;60182.97;5049652;28;45510;-78
2022/01/20 11:04:43;;;;;;;;;3.00;1.75;;;;;-143.72;100.00;60182.97;5053030;28;45312;-77
2022/01/20 11:07:12;;;;;;;;;1.25;1.00;;;;;-143.72;100.00;60182.97;5052138;28;45408;-77
2022/01/20 11:09:42;;;;;;;;;5.00;0.00;;;;;-143.72;100.00;60182.97;5033948;28;45844;-77
2022/01/20 11:12:12;;;;;;;;;2.00;0.00;;;;;-143.72;100.00;60182.97;5052220;28;45618;-77
2022/01/20 11:14:38;;;;;;;;;2.00;1.00;;;;;-143.72;100.00;60182.97;5052840;28;45388;-77
2022/01/20 11:17:04;;;;;;;;;2.25;1.00;;;;;-143.72;100.00;60182.97;5053854;28;45411;-77
2022/01/20 11:19:36;;;;;;;;;3.25;2.00;;;;;-143.72;100.00;60182.97;5052195;28;45466;-77
2022/01/20 11:22:12;;;;;;;;;4.75;2.00;;;;;-143.72;100.00;60182.97;5052062;28;45461;-76
2022/01/20 11:24:40;;;;;;;;;4.00;1.00;;;;;-143.72;100.00;60182.97;5052107;28;45330;-77
2022/01/20 11:27:07;;;;;;;;;3.00;1.50;;;;;-143.72;100.00;60182.97;5051988;28;45509;-77
2022/01/20 11:29:48;;;;;;;;;5.00;1.00;;;;;-143.72;100.00;60182.97;5054089;28;45430;-77
2022/01/20 11:32:22;;;;;;;;;4.00;2.00;;;;;-143.72;100.00;60182.97;5052672;28;45415;-77
2022/01/20 11:35:08;;;;;;;;;2.00;2.00;;;;;-143.72;100.00;60182.97;5054913;28;45400;-76
2022/01/20 11:37:40;;;;;;;;;1.25;1.25;;;;;-143.72;100.00;60182.97;5055181;28;54038;-77
2022/01/20 11:40:26;;;;;;;;;4.00;4.00;;;;;-143.72;100.00;60182.97;5033084;28;48466;-77
2022/01/20 11:43:06;;;;;;;;;3.50;1.00;;;;;-143.72;100.00;60182.97;5034817;28;45432;-77
2022/01/20 11:45:35;;;;;;;;;1.00;1.00;;;;;-143.72;100.00;60182.97;5035773;28;45568;-77
2022/01/20 11:48:22;;;;;;;;;4.25;0.00;;;;;-143.72;100.00;60182.97;5017327;28;45585;-78
2022/01/20 11:51:02;;;;;;;;;4.25;1.00;;;;;-143.72;100.00;60182.97;5019881;28;45485;-77
2022/01/20 11:53:28;;;;;;;;;4.00;1.00;;;;;-143.72;100.00;60182.97;5035540;28;45917;-78
2022/01/20 11:55:55;;;;;;;;;3.25;1.50;;;;;-143.72;100.00;60182.97;5036688;28;45538;-78
2022/01/20 11:58:23;;;;;;;;;2.25;1.00;;;;;-143.72;100.00;60182.97;5035176;28;45520;-77
2022/01/20 12:01:04;;;;;;;;;4.00;1.00;;;;;-143.72;100.00;60182.97;5014389;28;46292;-77
2022/01/20 12:03:31;;;;;;;;;1.25;1.25;;;;;-143.72;100.00;60182.97;5035208;28;45551;-77
2022/01/20 12:06:09;;;;;;;;;1.00;1.00;;;;;-143.72;100.00;60182.97;5034916;28;45447;-77
2022/01/20 12:08:35;;;;;;;;;1.00;1.00;;;;;-143.72;100.00;60182.97;5034478;28;45594;-77
2022/01/20 12:11:09;;;;;;;;;2.00;0.50;;;;;-143.72;100.00;60182.97;5036088;28;46254;-77
2022/01/20 12:13:51;;;;;;;;;2.00;1.00;;;;;-143.72;100.00;60182.97;5034754;28;45299;-77
2022/01/20 12:16:21;;;;;;;;;2.25;0.50;;;;;-143.72;100.00;60182.97;5034677;28;45461;-77
2022/01/20 12:18:52;;;;;;;;;1.75;0.00;;;;;-143.72;100.00;60182.97;5034778;28;45438;-77
2022/01/20 12:21:18;;;;;;;;;4.00;1.00;;;;;-143.72;100.00;60182.97;5016004;28;47555;-77